CPA6666 KMIA-TNCM
Flight info
| Callsign | CPA6666 |
|---|---|
| Flight time | N/A |
| Altitude | 41000 |
| Route | KLADA2 BITAC Y290 SLUGO ULUBA1 |
| Aircraft | A339/H-SADE1E2E3GHIJ3J5M1P2RWXY/LB2D1 |
Departure
| Time | 2026-05-06 15:23 |
|---|---|
| Airport | Miami International Airport (KMIA) |
Arrival
| Time | N/A |
|---|---|
| Airport | Princess Juliana International Airport (TNCM) |
| Time | Latitude | Longitude | Altitude | Speed | Heading |
|---|---|---|---|---|---|
| 2026-05-06 15:07 | 25.79782 | -80.27882 | 22 ft | 0 kts | 178° |
| 2026-05-06 15:11 | 25.79790 | -80.27882 | 22 ft | 2 kts | 178° |
| 2026-05-06 15:11 | 25.79805 | -80.27883 | 22 ft | 2 kts | 178° |
| 2026-05-06 15:11 | 25.79820 | -80.27884 | 22 ft | 2 kts | 178° |
| 2026-05-06 15:12 | 25.79835 | -80.27885 | 22 ft | 2 kts | 178° |
| 2026-05-06 15:12 | 25.79850 | -80.27885 | 22 ft | 2 kts | 185° |
| 2026-05-06 15:12 | 25.79865 | -80.27882 | 22 ft | 2 kts | 196° |
| 2026-05-06 15:12 | 25.79879 | -80.27876 | 22 ft | 2 kts | 205° |
| 2026-05-06 15:13 | 25.79892 | -80.27869 | 22 ft | 2 kts | 214° |
| 2026-05-06 15:13 | 25.79904 | -80.27858 | 22 ft | 2 kts | 224° |
| 2026-05-06 15:13 | 25.79914 | -80.27846 | 22 ft | 2 kts | 234° |
| 2026-05-06 15:13 | 25.79922 | -80.27832 | 22 ft | 2 kts | 243° |
| 2026-05-06 15:14 | 25.79928 | -80.27817 | 22 ft | 2 kts | 252° |
| 2026-05-06 15:14 | 25.79932 | -80.27801 | 22 ft | 2 kts | 262° |
| 2026-05-06 15:14 | 25.79933 | -80.27791 | 22 ft | 0 kts | 268° |
| 2026-05-06 15:14 | 25.79933 | -80.27788 | 22 ft | 0 kts | 268° |
| 2026-05-06 15:16 | 25.79933 | -80.27801 | 22 ft | 2 kts | 268° |
| 2026-05-06 15:17 | 25.79932 | -80.27831 | 22 ft | 5 kts | 268° |
| 2026-05-06 15:17 | 25.79931 | -80.27877 | 22 ft | 7 kts | 268° |
| 2026-05-06 15:17 | 25.79927 | -80.27939 | 22 ft | 8 kts | 264° |
| 2026-05-06 15:17 | 25.79921 | -80.28013 | 22 ft | 10 kts | 265° |
| 2026-05-06 15:18 | 25.79915 | -80.28097 | 22 ft | 11 kts | 267° |
| 2026-05-06 15:18 | 25.79911 | -80.28190 | 22 ft | 12 kts | 268° |
| 2026-05-06 15:18 | 25.79926 | -80.28285 | 22 ft | 13 kts | 294° |
| 2026-05-06 15:18 | 25.79947 | -80.28384 | 22 ft | 13 kts | 268° |
| 2026-05-06 15:19 | 25.79943 | -80.28490 | 23 ft | 14 kts | 268° |
| 2026-05-06 15:19 | 25.79939 | -80.28603 | 23 ft | 15 kts | 268° |
| 2026-05-06 15:19 | 25.79933 | -80.28722 | 23 ft | 15 kts | 267° |
| 2026-05-06 15:19 | 25.79928 | -80.28844 | 23 ft | 16 kts | 268° |
| 2026-05-06 15:20 | 25.79923 | -80.28973 | 23 ft | 16 kts | 267° |
| 2026-05-06 15:20 | 25.79917 | -80.29105 | 22 ft | 17 kts | 267° |
| 2026-05-06 15:20 | 25.79915 | -80.29241 | 22 ft | 17 kts | 267° |
| 2026-05-06 15:20 | 25.79908 | -80.29381 | 22 ft | 18 kts | 266° |
| 2026-05-06 15:21 | 25.79899 | -80.29524 | 22 ft | 18 kts | 267° |
| 2026-05-06 15:21 | 25.79895 | -80.29669 | 21 ft | 19 kts | 269° |
| 2026-05-06 15:21 | 25.79924 | -80.29810 | 21 ft | 19 kts | 293° |
| 2026-05-06 15:21 | 25.79973 | -80.29949 | 21 ft | 19 kts | 286° |
| 2026-05-06 15:22 | 25.80009 | -80.30090 | 20 ft | 18 kts | 290° |
| 2026-05-06 15:22 | 25.80085 | -80.30119 | 20 ft | 12 kts | 71° |
| 2026-05-06 15:22 | 25.80080 | -80.30019 | 20 ft | 13 kts | 92° |
| 2026-05-06 15:22 | 25.80081 | -80.29915 | 21 ft | 13 kts | 88° |
| 2026-05-06 15:23 | 25.80089 | -80.29697 | 21 ft | 61 kts | 88° |
| 2026-05-06 15:23 | 25.80119 | -80.28916 | 23 ft | 137 kts | 87° |
| 2026-05-06 15:23 | 25.80155 | -80.27679 | 319 ft | 174 kts | 89° |
| 2026-05-06 15:23 | 25.80185 | -80.26257 | 800 ft | 200 kts | 92° |
| 2026-05-06 15:24 | 25.79655 | -80.24742 | 1312 ft | 226 kts | 118° |
| 2026-05-06 15:24 | 25.78929 | -80.23084 | 1785 ft | 252 kts | 112° |
| 2026-05-06 15:24 | 25.78289 | -80.21193 | 2077 ft | 274 kts | 108° |
| 2026-05-06 15:24 | 25.77527 | -80.19248 | 2957 ft | 274 kts | 117° |
| 2026-05-06 15:25 | 25.76629 | -80.17452 | 4004 ft | 266 kts | 119° |
| 2026-05-06 15:25 | 25.75704 | -80.15697 | 4788 ft | 268 kts | 118° |
| 2026-05-06 15:25 | 25.74773 | -80.13896 | 5511 ft | 273 kts | 118° |
| 2026-05-06 15:25 | 25.73852 | -80.12050 | 6222 ft | 277 kts | 116° |
| 2026-05-06 15:26 | 25.73049 | -80.10113 | 6932 ft | 281 kts | 110° |
| 2026-05-06 15:26 | 25.72348 | -80.08069 | 7619 ft | 285 kts | 108° |
| 2026-05-06 15:26 | 25.71671 | -80.06027 | 8273 ft | 289 kts | 108° |
| 2026-05-06 15:26 | 25.70981 | -80.03932 | 8928 ft | 293 kts | 107° |